sensor_id;sensor_type;location;lat;lon;timestamp;temperature;humidity
8994;DHT22;4532;50.886;4.700;2024-03-07T00:01:59;9.00;69.60
8994;DHT22;4532;50.886;4.700;2024-03-07T00:04:26;9.00;69.60
8994;DHT22;4532;50.886;4.700;2024-03-07T00:06:53;8.90;69.60
8994;DHT22;4532;50.886;4.700;2024-03-07T00:09:21;8.90;69.60
8994;DHT22;4532;50.886;4.700;2024-03-07T00:11:53;8.90;69.80
8994;DHT22;4532;50.886;4.700;2024-03-07T00:14:23;8.90;69.80
8994;DHT22;4532;50.886;4.700;2024-03-07T00:16:57;8.90;69.90
8994;DHT22;4532;50.886;4.700;2024-03-07T00:19:26;8.90;69.90
8994;DHT22;4532;50.886;4.700;2024-03-07T00:21:56;8.90;69.90
8994;DHT22;4532;50.886;4.700;2024-03-07T00:24:26;8.90;69.80
8994;DHT22;4532;50.886;4.700;2024-03-07T00:26:58;8.90;69.80
8994;DHT22;4532;50.886;4.700;2024-03-07T00:29:30;8.90;69.80
8994;DHT22;4532;50.886;4.700;2024-03-07T00:31:57;8.90;69.80
8994;DHT22;4532;50.886;4.700;2024-03-07T00:34:28;8.90;69.80
8994;DHT22;4532;50.886;4.700;2024-03-07T00:36:57;8.90;69.90
8994;DHT22;4532;50.886;4.700;2024-03-07T00:39:26;8.80;69.90
8994;DHT22;4532;50.886;4.700;2024-03-07T00:41:57;8.80;69.80
8994;DHT22;4532;50.886;4.700;2024-03-07T00:44:27;8.80;69.80
8994;DHT22;4532;50.886;4.700;2024-03-07T00:46:54;8.80;69.90
8994;DHT22;4532;50.886;4.700;2024-03-07T00:49:22;8.80;70.00
8994;DHT22;4532;50.886;4.700;2024-03-07T00:51:51;8.80;70.00
8994;DHT22;4532;50.886;4.700;2024-03-07T00:54:21;8.80;70.00
8994;DHT22;4532;50.886;4.700;2024-03-07T00:56:48;8.80;70.00
8994;DHT22;4532;50.886;4.700;2024-03-07T00:59:20;8.80;70.00
8994;DHT22;4532;50.886;4.700;2024-03-07T01:01:47;8.70;69.80
8994;DHT22;4532;50.886;4.700;2024-03-07T01:04:18;8.70;69.80
8994;DHT22;4532;50.886;4.700;2024-03-07T01:06:48;8.70;69.80
8994;DHT22;4532;50.886;4.700;2024-03-07T01:09:15;8.70;69.80
8994;DHT22;4532;50.886;4.700;2024-03-07T01:11:46;8.70;69.80
8994;DHT22;4532;50.886;4.700;2024-03-07T01:14:13;8.60;69.90
8994;DHT22;4532;50.886;4.700;2024-03-07T01:16:43;8.60;70.00
8994;DHT22;4532;50.886;4.700;2024-03-07T01:19:12;8.60;70.10
8994;DHT22;4532;50.886;4.700;2024-03-07T01:21:42;8.60;70.10
8994;DHT22;4532;50.886;4.700;2024-03-07T01:24:09;8.60;70.10
8994;DHT22;4532;50.886;4.700;2024-03-07T01:26:41;8.60;70.10
8994;DHT22;4532;50.886;4.700;2024-03-07T01:29:08;8.50;70.00
8994;DHT22;4532;50.886;4.700;2024-03-07T01:31:37;8.50;70.00
8994;DHT22;4532;50.886;4.700;2024-03-07T01:34:05;8.50;70.00
8994;DHT22;4532;50.886;4.700;2024-03-07T01:36:32;8.50;70.00
8994;DHT22;4532;50.886;4.700;2024-03-07T01:38:59;8.50;70.00
8994;DHT22;4532;50.886;4.700;2024-03-07T01:41:26;8.40;70.00
8994;DHT22;4532;50.886;4.700;2024-03-07T01:43:58;8.40;70.00
8994;DHT22;4532;50.886;4.700;2024-03-07T01:46:25;8.40;70.00
8994;DHT22;4532;50.886;4.700;2024-03-07T01:48:53;8.40;70.00
8994;DHT22;4532;50.886;4.700;2024-03-07T01:51:24;8.40;70.00
8994;DHT22;4532;50.886;4.700;2024-03-07T01:53:54;8.30;70.10
8994;DHT22;4532;50.886;4.700;2024-03-07T01:56:22;8.30;70.10
8994;DHT22;4532;50.886;4.700;2024-03-07T01:58:55;8.30;70.10
8994;DHT22;4532;50.886;4.700;2024-03-07T02:01:23;8.30;70.10
8994;DHT22;4532;50.886;4.700;2024-03-07T02:03:50;8.30;70.10
8994;DHT22;4532;50.886;4.700;2024-03-07T02:06:17;8.30;70.10
8994;DHT22;4532;50.886;4.700;2024-03-07T02:08:47;8.30;70.20
8994;DHT22;4532;50.886;4.700;2024-03-07T02:11:15;8.30;70.20
8994;DHT22;4532;50.886;4.700;2024-03-07T02:13:44;8.30;70.20
8994;DHT22;4532;50.886;4.700;2024-03-07T02:16:12;8.30;70.20
8994;DHT22;4532;50.886;4.700;2024-03-07T02:18:39;8.30;70.20
8994;DHT22;4532;50.886;4.700;2024-03-07T02:21:09;8.30;70.20
8994;DHT22;4532;50.886;4.700;2024-03-07T02:23:36;8.30;70.20
8994;DHT22;4532;50.886;4.700;2024-03-07T02:26:03;8.20;70.10
8994;DHT22;4532;50.886;4.700;2024-03-07T02:28:38;8.20;70.20
8994;DHT22;4532;50.886;4.700;2024-03-07T02:31:08;8.20;70.20
8994;DHT22;4532;50.886;4.700;2024-03-07T02:33:38;8.20;70.30
8994;DHT22;4532;50.886;4.700;2024-03-07T02:36:07;8.20;70.20
8994;DHT22;4532;50.886;4.700;2024-03-07T02:38:35;8.20;70.20
8994;DHT22;4532;50.886;4.700;2024-03-07T02:41:06;8.20;70.30
8994;DHT22;4532;50.886;4.700;2024-03-07T02:43:36;8.20;70.30
8994;DHT22;4532;50.886;4.700;2024-03-07T02:46:05;8.10;70.20
8994;DHT22;4532;50.886;4.700;2024-03-07T02:48:36;8.10;70.20
8994;DHT22;4532;50.886;4.700;2024-03-07T02:51:06;8.10;70.20
8994;DHT22;4532;50.886;4.700;2024-03-07T02:53:33;8.10;70.20
8994;DHT22;4532;50.886;4.700;2024-03-07T02:56:03;8.10;70.20
8994;DHT22;4532;50.886;4.700;2024-03-07T02:58:37;8.00;70.20
8994;DHT22;4532;50.886;4.700;2024-03-07T03:01:07;8.00;70.30
8994;DHT22;4532;50.886;4.700;2024-03-07T03:03:36;8.10;70.40
8994;DHT22;4532;50.886;4.700;2024-03-07T03:06:07;8.00;70.40
8994;DHT22;4532;50.886;4.700;2024-03-07T03:08:35;8.00;70.40
8994;DHT22;4532;50.886;4.700;2024-03-07T03:11:03;8.00;70.40
8994;DHT22;4532;50.886;4.700;2024-03-07T03:13:30;8.00;70.50
8994;DHT22;4532;50.886;4.700;2024-03-07T03:15:57;8.00;70.50
8994;DHT22;4532;50.886;4.700;2024-03-07T03:18:27;8.00;70.50
8994;DHT22;4532;50.886;4.700;2024-03-07T03:21:02;8.00;70.50
8994;DHT22;4532;50.886;4.700;2024-03-07T03:23:35;8.00;70.50
8994;DHT22;4532;50.886;4.700;2024-03-07T03:26:04;7.90;70.30
8994;DHT22;4532;50.886;4.700;2024-03-07T03:28:36;7.90;70.30
8994;DHT22;4532;50.886;4.700;2024-03-07T03:31:03;7.90;70.30
8994;DHT22;4532;50.886;4.700;2024-03-07T03:33:31;7.90;70.40
8994;DHT22;4532;50.886;4.700;2024-03-07T03:36:01;7.80;70.20
8994;DHT22;4532;50.886;4.700;2024-03-07T03:38:31;7.80;70.40
8994;DHT22;4532;50.886;4.700;2024-03-07T03:40:58;7.80;70.40
8994;DHT22;4532;50.886;4.700;2024-03-07T03:43:28;7.70;70.40
8994;DHT22;4532;50.886;4.700;2024-03-07T03:45:59;7.70;70.40
8994;DHT22;4532;50.886;4.700;2024-03-07T03:48:31;7.70;70.60
8994;DHT22;4532;50.886;4.700;2024-03-07T03:51:02;7.70;70.70
8994;DHT22;4532;50.886;4.700;2024-03-07T03:53:32;7.60;70.70
8994;DHT22;4532;50.886;4.700;2024-03-07T03:56:03;7.60;70.80
8994;DHT22;4532;50.886;4.700;2024-03-07T03:58:35;7.60;70.70
8994;DHT22;4532;50.886;4.700;2024-03-07T04:01:07;7.60;70.80
8994;DHT22;4532;50.886;4.700;2024-03-07T04:03:40;7.60;70.80
8994;DHT22;4532;50.886;4.700;2024-03-07T04:06:12;7.60;70.90
8994;DHT22;4532;50.886;4.700;2024-03-07T04:08:39;7.60;70.90
8994;DHT22;4532;50.886;4.700;2024-03-07T04:11:06;7.60;70.90
8994;DHT22;4532;50.886;4.700;2024-03-07T04:13:37;7.60;70.90
8994;DHT22;4532;50.886;4.700;2024-03-07T04:16:05;7.60;71.00
8994;DHT22;4532;50.886;4.700;2024-03-07T04:18:32;7.60;71.00
8994;DHT22;4532;50.886;4.700;2024-03-07T04:21:04;7.60;71.00
8994;DHT22;4532;50.886;4.700;2024-03-07T04:23:34;7.60;71.10
8994;DHT22;4532;50.886;4.700;2024-03-07T04:26:11;7.60;71.10
8994;DHT22;4532;50.886;4.700;2024-03-07T04:28:38;7.60;71.00
8994;DHT22;4532;50.886;4.700;2024-03-07T04:31:06;7.60;71.00
8994;DHT22;4532;50.886;4.700;2024-03-07T04:33:35;7.60;71.10
8994;DHT22;4532;50.886;4.700;2024-03-07T04:36:05;7.60;71.10
8994;DHT22;4532;50.886;4.700;2024-03-07T04:38:34;7.60;71.00
8994;DHT22;4532;50.886;4.700;2024-03-07T04:41:04;7.50;71.00
8994;DHT22;4532;50.886;4.700;2024-03-07T04:43:31;7.50;71.00
8994;DHT22;4532;50.886;4.700;2024-03-07T04:46:00;7.50;71.00
8994;DHT22;4532;50.886;4.700;2024-03-07T04:48:34;7.50;71.10
8994;DHT22;4532;50.886;4.700;2024-03-07T04:51:04;7.50;71.10
8994;DHT22;4532;50.886;4.700;2024-03-07T04:53:32;7.50;71.20
8994;DHT22;4532;50.886;4.700;2024-03-07T04:56:02;7.50;71.20
8994;DHT22;4532;50.886;4.700;2024-03-07T04:58:31;7.50;71.20
8994;DHT22;4532;50.886;4.700;2024-03-07T05:01:01;7.50;71.20
8994;DHT22;4532;50.886;4.700;2024-03-07T05:03:32;7.50;71.20
8994;DHT22;4532;50.886;4.700;2024-03-07T05:05:59;7.50;71.20
8994;DHT22;4532;50.886;4.700;2024-03-07T05:08:29;7.50;71.30
8994;DHT22;4532;50.886;4.700;2024-03-07T05:11:03;7.50;71.30
8994;DHT22;4532;50.886;4.700;2024-03-07T05:13:34;7.50;71.30
8994;DHT22;4532;50.886;4.700;2024-03-07T05:16:04;7.50;71.30
8994;DHT22;4532;50.886;4.700;2024-03-07T05:18:31;7.50;71.30
8994;DHT22;4532;50.886;4.700;2024-03-07T05:21:01;7.50;71.40
8994;DHT22;4532;50.886;4.700;2024-03-07T05:23:48;7.50;71.30
8994;DHT22;4532;50.886;4.700;2024-03-07T05:26:18;7.50;71.30
8994;DHT22;4532;50.886;4.700;2024-03-07T05:28:48;7.50;71.40
8994;DHT22;4532;50.886;4.700;2024-03-07T05:31:17;7.50;71.40
8994;DHT22;4532;50.886;4.700;2024-03-07T05:33:49;7.50;71.50
8994;DHT22;4532;50.886;4.700;2024-03-07T05:36:17;7.50;71.40
8994;DHT22;4532;50.886;4.700;2024-03-07T05:38:45;7.50;71.50
8994;DHT22;4532;50.886;4.700;2024-03-07T05:41:14;7.50;71.40
8994;DHT22;4532;50.886;4.700;2024-03-07T05:43:43;7.50;71.40
8994;DHT22;4532;50.886;4.700;2024-03-07T05:46:11;7.50;71.50
8994;DHT22;4532;50.886;4.700;2024-03-07T05:48:43;7.50;71.50
8994;DHT22;4532;50.886;4.700;2024-03-07T05:51:13;7.50;71.50
8994;DHT22;4532;50.886;4.700;2024-03-07T05:53:40;7.50;71.50
8994;DHT22;4532;50.886;4.700;2024-03-07T05:56:09;7.50;71.40
8994;DHT22;4532;50.886;4.700;2024-03-07T05:58:36;7.50;72.30
8994;DHT22;4532;50.886;4.700;2024-03-07T06:01:04;7.50;71.50
8994;DHT22;4532;50.886;4.700;2024-03-07T06:03:31;7.50;71.60
8994;DHT22;4532;50.886;4.700;2024-03-07T06:05:59;7.50;71.60
8994;DHT22;4532;50.886;4.700;2024-03-07T06:08:26;7.50;71.70
8994;DHT22;4532;50.886;4.700;2024-03-07T06:10:56;7.50;71.70
8994;DHT22;4532;50.886;4.700;2024-03-07T06:13:25;7.50;71.70
8994;DHT22;4532;50.886;4.700;2024-03-07T06:15:54;7.50;71.70
8994;DHT22;4532;50.886;4.700;2024-03-07T06:18:21;7.60;71.80
8994;DHT22;4532;50.886;4.700;2024-03-07T06:20:51;7.60;71.80
8994;DHT22;4532;50.886;4.700;2024-03-07T06:23:18;7.60;71.80
8994;DHT22;4532;50.886;4.700;2024-03-07T06:25:45;7.60;71.90
8994;DHT22;4532;50.886;4.700;2024-03-07T06:28:14;7.60;71.90
8994;DHT22;4532;50.886;4.700;2024-03-07T06:30:45;7.60;71.90
8994;DHT22;4532;50.886;4.700;2024-03-07T06:33:14;7.60;72.00
8994;DHT22;4532;50.886;4.700;2024-03-07T06:35:44;7.60;72.00
8994;DHT22;4532;50.886;4.700;2024-03-07T06:38:16;7.60;72.00
8994;DHT22;4532;50.886;4.700;2024-03-07T06:40:45;7.70;72.10
8994;DHT22;4532;50.886;4.700;2024-03-07T06:43:15;7.70;72.10
8994;DHT22;4532;50.886;4.700;2024-03-07T06:45:42;7.70;72.10
8994;DHT22;4532;50.886;4.700;2024-03-07T06:48:10;7.70;72.10
8994;DHT22;4532;50.886;4.700;2024-03-07T06:50:40;7.70;72.10
8994;DHT22;4532;50.886;4.700;2024-03-07T06:53:09;7.70;72.10
8994;DHT22;4532;50.886;4.700;2024-03-07T06:55:37;7.70;72.10
8994;DHT22;4532;50.886;4.700;2024-03-07T06:58:05;7.70;72.10
8994;DHT22;4532;50.886;4.700;2024-03-07T07:00:38;7.70;72.10
8994;DHT22;4532;50.886;4.700;2024-03-07T07:03:09;7.80;72.10
8994;DHT22;4532;50.886;4.700;2024-03-07T07:05:44;7.80;72.20
8994;DHT22;4532;50.886;4.700;2024-03-07T07:08:12;7.70;72.10
8994;DHT22;4532;50.886;4.700;2024-03-07T07:10:45;7.80;72.10
8994;DHT22;4532;50.886;4.700;2024-03-07T07:13:12;7.70;72.00
8994;DHT22;4532;50.886;4.700;2024-03-07T07:15:40;7.70;72.10
8994;DHT22;4532;50.886;4.700;2024-03-07T07:18:08;7.70;72.10
8994;DHT22;4532;50.886;4.700;2024-03-07T07:20:35;7.70;72.20
8994;DHT22;4532;50.886;4.700;2024-03-07T07:23:03;7.70;72.20
8994;DHT22;4532;50.886;4.700;2024-03-07T07:25:33;7.70;72.20
8994;DHT22;4532;50.886;4.700;2024-03-07T07:28:01;7.70;72.30
8994;DHT22;4532;50.886;4.700;2024-03-07T07:30:32;7.70;72.40
8994;DHT22;4532;50.886;4.700;2024-03-07T07:33:03;7.70;72.40
8994;DHT22;4532;50.886;4.700;2024-03-07T07:35:30;7.70;72.40
8994;DHT22;4532;50.886;4.700;2024-03-07T07:38:01;7.70;72.50
8994;DHT22;4532;50.886;4.700;2024-03-07T07:40:28;7.70;72.50
8994;DHT22;4532;50.886;4.700;2024-03-07T07:42:58;7.70;72.40
8994;DHT22;4532;50.886;4.700;2024-03-07T07:45:25;7.70;72.50
8994;DHT22;4532;50.886;4.700;2024-03-07T07:47:53;7.70;72.60
8994;DHT22;4532;50.886;4.700;2024-03-07T07:50:24;7.70;72.70
8994;DHT22;4532;50.886;4.700;2024-03-07T07:52:59;7.80;72.80
8994;DHT22;4532;50.886;4.700;2024-03-07T07:55:28;7.80;72.80
8994;DHT22;4532;50.886;4.700;2024-03-07T07:57:58;7.80;72.80
8994;DHT22;4532;50.886;4.700;2024-03-07T08:00:27;7.80;72.90
8994;DHT22;4532;50.886;4.700;2024-03-07T08:03:06;7.90;73.00
8994;DHT22;4532;50.886;4.700;2024-03-07T08:05:35;7.90;73.10
8994;DHT22;4532;50.886;4.700;2024-03-07T08:08:07;7.90;72.80
8994;DHT22;4532;50.886;4.700;2024-03-07T08:10:38;8.00;73.10
8994;DHT22;4532;50.886;4.700;2024-03-07T08:13:08;8.00;73.00
8994;DHT22;4532;50.886;4.700;2024-03-07T08:15:37;8.00;73.10
8994;DHT22;4532;50.886;4.700;2024-03-07T08:18:05;8.00;73.00
8994;DHT22;4532;50.886;4.700;2024-03-07T08:20:37;8.10;73.10
8994;DHT22;4532;50.886;4.700;2024-03-07T08:23:09;8.10;73.10
8994;DHT22;4532;50.886;4.700;2024-03-07T08:25:39;8.10;73.10
8994;DHT22;4532;50.886;4.700;2024-03-07T08:28:10;8.20;73.20
8994;DHT22;4532;50.886;4.700;2024-03-07T08:30:39;8.20;73.00
8994;DHT22;4532;50.886;4.700;2024-03-07T08:33:10;8.20;73.10
8994;DHT22;4532;50.886;4.700;2024-03-07T08:35:43;8.20;73.10
8994;DHT22;4532;50.886;4.700;2024-03-07T08:38:12;8.30;73.20
8994;DHT22;4532;50.886;4.700;2024-03-07T08:40:42;8.30;73.20
8994;DHT22;4532;50.886;4.700;2024-03-07T08:43:11;8.30;73.40
8994;DHT22;4532;50.886;4.700;2024-03-07T08:45:39;8.40;74.20
8994;DHT22;4532;50.886;4.700;2024-03-07T08:48:06;8.40;73.40
8994;DHT22;4532;50.886;4.700;2024-03-07T08:50:42;8.50;73.50
8994;DHT22;4532;50.886;4.700;2024-03-07T08:53:12;8.50;73.50
8994;DHT22;4532;50.886;4.700;2024-03-07T08:55:41;8.50;73.60
8994;DHT22;4532;50.886;4.700;2024-03-07T08:58:12;8.60;73.60
8994;DHT22;4532;50.886;4.700;2024-03-07T09:00:39;8.60;73.70
8994;DHT22;4532;50.886;4.700;2024-03-07T09:03:08;8.70;73.80
8994;DHT22;4532;50.886;4.700;2024-03-07T09:05:39;8.70;73.70
8994;DHT22;4532;50.886;4.700;2024-03-07T09:08:07;8.80;73.80
8994;DHT22;4532;50.886;4.700;2024-03-07T09:10:35;8.80;73.70
8994;DHT22;4532;50.886;4.700;2024-03-07T09:13:08;8.90;73.70
8994;DHT22;4532;50.886;4.700;2024-03-07T09:15:41;8.90;73.80
8994;DHT22;4532;50.886;4.700;2024-03-07T09:18:08;9.00;73.90
8994;DHT22;4532;50.886;4.700;2024-03-07T09:20:36;9.00;73.80
8994;DHT22;4532;50.886;4.700;2024-03-07T09:23:05;9.00;73.80
8994;DHT22;4532;50.886;4.700;2024-03-07T09:25:35;9.10;73.80
8994;DHT22;4532;50.886;4.700;2024-03-07T09:28:05;9.10;73.80
8994;DHT22;4532;50.886;4.700;2024-03-07T09:30:36;9.20;73.80
8994;DHT22;4532;50.886;4.700;2024-03-07T09:33:09;9.20;73.80
8994;DHT22;4532;50.886;4.700;2024-03-07T09:35:38;9.30;73.80
8994;DHT22;4532;50.886;4.700;2024-03-07T09:38:10;9.30;73.90
8994;DHT22;4532;50.886;4.700;2024-03-07T09:40:38;9.30;73.80
8994;DHT22;4532;50.886;4.700;2024-03-07T09:43:10;9.30;73.80
8994;DHT22;4532;50.886;4.700;2024-03-07T09:45:41;9.30;73.70
8994;DHT22;4532;50.886;4.700;2024-03-07T09:48:17;9.40;73.90
8994;DHT22;4532;50.886;4.700;2024-03-07T09:50:46;9.40;73.90
8994;DHT22;4532;50.886;4.700;2024-03-07T09:53:17;9.40;74.00
8994;DHT22;4532;50.886;4.700;2024-03-07T09:55:45;9.50;74.00
8994;DHT22;4532;50.886;4.700;2024-03-07T09:58:18;9.50;74.00
8994;DHT22;4532;50.886;4.700;2024-03-07T10:00:49;9.50;74.00
8994;DHT22;4532;50.886;4.700;2024-03-07T10:03:20;9.60;74.00
8994;DHT22;4532;50.886;4.700;2024-03-07T10:05:49;9.60;74.10
8994;DHT22;4532;50.886;4.700;2024-03-07T10:08:19;9.60;74.10
8994;DHT22;4532;50.886;4.700;2024-03-07T10:10:50;9.70;74.00
8994;DHT22;4532;50.886;4.700;2024-03-07T10:13:18;9.70;74.00
8994;DHT22;4532;50.886;4.700;2024-03-07T10:15:45;9.80;74.10
8994;DHT22;4532;50.886;4.700;2024-03-07T10:18:15;9.80;74.00
8994;DHT22;4532;50.886;4.700;2024-03-07T10:20:46;9.80;74.10
8994;DHT22;4532;50.886;4.700;2024-03-07T10:23:19;9.90;74.20
8994;DHT22;4532;50.886;4.700;2024-03-07T10:25:48;9.90;74.30
8994;DHT22;4532;50.886;4.700;2024-03-07T10:28:18;9.90;74.30
8994;DHT22;4532;50.886;4.700;2024-03-07T10:30:47;10.00;74.40
8994;DHT22;4532;50.886;4.700;2024-03-07T10:33:17;10.10;74.40
8994;DHT22;4532;50.886;4.700;2024-03-07T10:35:49;10.10;74.40
8994;DHT22;4532;50.886;4.700;2024-03-07T10:38:19;10.10;74.30
8994;DHT22;4532;50.886;4.700;2024-03-07T10:40:54;10.20;74.40
8994;DHT22;4532;50.886;4.700;2024-03-07T10:43:26;10.20;74.20
8994;DHT22;4532;50.886;4.700;2024-03-07T10:45:57;10.30;74.20
8994;DHT22;4532;50.886;4.700;2024-03-07T10:48:38;10.30;74.20
8994;DHT22;4532;50.886;4.700;2024-03-07T10:51:30;10.30;74.20
8994;DHT22;4532;50.886;4.700;2024-03-07T10:54:13;10.40;74.30
8994;DHT22;4532;50.886;4.700;2024-03-07T10:57:06;10.40;74.30
8994;DHT22;4532;50.886;4.700;2024-03-07T10:59:49;10.50;74.30
8994;DHT22;4532;50.886;4.700;2024-03-07T11:02:31;10.50;74.50
8994;DHT22;4532;50.886;4.700;2024-03-07T11:05:04;10.50;74.40
8994;DHT22;4532;50.886;4.700;2024-03-07T11:07:37;10.60;74.40
8994;DHT22;4532;50.886;4.700;2024-03-07T11:10:05;10.60;74.30
8994;DHT22;4532;50.886;4.700;2024-03-07T11:12:41;10.70;74.50
8994;DHT22;4532;50.886;4.700;2024-03-07T11:15:13;10.80;74.50
8994;DHT22;4532;50.886;4.700;2024-03-07T11:17:48;10.80;74.40
8994;DHT22;4532;50.886;4.700;2024-03-07T11:22:53;10.90;74.40
8994;DHT22;4532;50.886;4.700;2024-03-07T11:25:22;11.00;74.50
8994;DHT22;4532;50.886;4.700;2024-03-07T11:30:30;11.10;74.50
8994;DHT22;4532;50.886;4.700;2024-03-07T11:32:57;11.10;74.50
8994;DHT22;4532;50.886;4.700;2024-03-07T11:35:37;11.20;74.30
8994;DHT22;4532;50.886;4.700;2024-03-07T11:38:07;11.30;74.30
8994;DHT22;4532;50.886;4.700;2024-03-07T11:43:05;11.40;74.30
8994;DHT22;4532;50.886;4.700;2024-03-07T11:45:33;11.40;73.90
8994;DHT22;4532;50.886;4.700;2024-03-07T11:48:06;11.40;74.00
8994;DHT22;4532;50.886;4.700;2024-03-07T11:50:40;11.50;74.20
8994;DHT22;4532;50.886;4.700;2024-03-07T11:53:11;11.50;73.90
8994;DHT22;4532;50.886;4.700;2024-03-07T11:55:40;11.60;73.70
8994;DHT22;4532;50.886;4.700;2024-03-07T11:58:20;11.70;74.00
8994;DHT22;4532;50.886;4.700;2024-03-07T12:00:58;11.70;73.90
8994;DHT22;4532;50.886;4.700;2024-03-07T12:03:28;11.70;73.80
8994;DHT22;4532;50.886;4.700;2024-03-07T12:05:58;11.80;73.80
8994;DHT22;4532;50.886;4.700;2024-03-07T12:08:26;11.80;73.90
8994;DHT22;4532;50.886;4.700;2024-03-07T12:10:57;11.80;73.40
8994;DHT22;4532;50.886;4.700;2024-03-07T12:13:26;11.80;73.40
8994;DHT22;4532;50.886;4.700;2024-03-07T12:15:55;11.80;73.70
8994;DHT22;4532;50.886;4.700;2024-03-07T12:18:26;11.80;73.90
8994;DHT22;4532;50.886;4.700;2024-03-07T12:20:54;11.90;74.00
8994;DHT22;4532;50.886;4.700;2024-03-07T12:23:23;11.90;73.90
8994;DHT22;4532;50.886;4.700;2024-03-07T12:26:03;12.00;73.90
8994;DHT22;4532;50.886;4.700;2024-03-07T12:28:34;12.00;74.00
8994;DHT22;4532;50.886;4.700;2024-03-07T12:31:03;12.00;73.40
8994;DHT22;4532;50.886;4.700;2024-03-07T12:33:34;12.10;73.60
8994;DHT22;4532;50.886;4.700;2024-03-07T12:36:12;12.10;73.20
8994;DHT22;4532;50.886;4.700;2024-03-07T12:38:40;12.10;73.50
8994;DHT22;4532;50.886;4.700;2024-03-07T12:41:10;12.10;73.00
8994;DHT22;4532;50.886;4.700;2024-03-07T12:43:42;12.10;72.60
8994;DHT22;4532;50.886;4.700;2024-03-07T12:46:13;12.00;72.60
8994;DHT22;4532;50.886;4.700;2024-03-07T12:48:43;12.00;72.50
8994;DHT22;4532;50.886;4.700;2024-03-07T12:51:18;12.00;72.60
8994;DHT22;4532;50.886;4.700;2024-03-07T12:53:50;12.00;72.20
8994;DHT22;4532;50.886;4.700;2024-03-07T12:56:19;12.00;72.90
8994;DHT22;4532;50.886;4.700;2024-03-07T12:58:49;12.00;73.10
8994;DHT22;4532;50.886;4.700;2024-03-07T13:01:20;12.00;72.90
8994;DHT22;4532;50.886;4.700;2024-03-07T13:03:48;12.00;72.70
8994;DHT22;4532;50.886;4.700;2024-03-07T13:06:16;12.00;72.80
8994;DHT22;4532;50.886;4.700;2024-03-07T13:08:52;12.10;72.80
8994;DHT22;4532;50.886;4.700;2024-03-07T13:11:26;12.00;72.70
8994;DHT22;4532;50.886;4.700;2024-03-07T13:13:59;12.00;72.70
8994;DHT22;4532;50.886;4.700;2024-03-07T13:16:27;12.00;72.20
8994;DHT22;4532;50.886;4.700;2024-03-07T13:19:00;12.00;72.40
8994;DHT22;4532;50.886;4.700;2024-03-07T13:21:34;12.00;72.40
8994;DHT22;4532;50.886;4.700;2024-03-07T13:24:02;12.00;72.40
8994;DHT22;4532;50.886;4.700;2024-03-07T13:26:32;12.00;72.50
8994;DHT22;4532;50.886;4.700;2024-03-07T13:29:00;12.00;72.50
8994;DHT22;4532;50.886;4.700;2024-03-07T13:31:31;12.00;72.40
8994;DHT22;4532;50.886;4.700;2024-03-07T13:33:58;11.90;71.50
8994;DHT22;4532;50.886;4.700;2024-03-07T13:36:31;11.90;72.30
8994;DHT22;4532;50.886;4.700;2024-03-07T13:39:01;11.90;72.10
8994;DHT22;4532;50.886;4.700;2024-03-07T13:41:31;11.90;72.10
8994;DHT22;4532;50.886;4.700;2024-03-07T13:43:58;11.90;71.80
8994;DHT22;4532;50.886;4.700;2024-03-07T13:46:30;11.90;71.60
8994;DHT22;4532;50.886;4.700;2024-03-07T13:49:03;11.90;71.80
8994;DHT22;4532;50.886;4.700;2024-03-07T13:51:41;11.80;71.80
8994;DHT22;4532;50.886;4.700;2024-03-07T13:54:22;11.80;71.70
8994;DHT22;4532;50.886;4.700;2024-03-07T14:00:30;11.80;71.40
8994;DHT22;4532;50.886;4.700;2024-03-07T14:06:03;11.70;71.70
8994;DHT22;4532;50.886;4.700;2024-03-07T14:23:00;11.60;71.30
8994;DHT22;4532;50.886;4.700;2024-03-07T14:31:11;11.70;71.20
8994;DHT22;4532;50.886;4.700;2024-03-07T14:36:46;11.60;71.00
8994;DHT22;4532;50.886;4.700;2024-03-07T14:39:18;11.70;71.40
8994;DHT22;4532;50.886;4.700;2024-03-07T14:42:01;11.70;69.60
8994;DHT22;4532;50.886;4.700;2024-03-07T14:44:31;11.70;70.90
8994;DHT22;4532;50.886;4.700;2024-03-07T14:47:04;11.70;71.00
8994;DHT22;4532;50.886;4.700;2024-03-07T14:49:41;11.70;70.80
8994;DHT22;4532;50.886;4.700;2024-03-07T14:52:11;11.70;70.70
8994;DHT22;4532;50.886;4.700;2024-03-07T14:54:39;11.70;70.90
8994;DHT22;4532;50.886;4.700;2024-03-07T14:57:11;11.70;70.90
8994;DHT22;4532;50.886;4.700;2024-03-07T14:59:38;11.80;70.60
8994;DHT22;4532;50.886;4.700;2024-03-07T15:02:10;11.80;71.40
8994;DHT22;4532;50.886;4.700;2024-03-07T15:04:38;11.80;70.20
8994;DHT22;4532;50.886;4.700;2024-03-07T15:07:08;11.80;70.70
8994;DHT22;4532;50.886;4.700;2024-03-07T15:09:39;11.80;70.70
8994;DHT22;4532;50.886;4.700;2024-03-07T15:12:11;11.80;70.30
8994;DHT22;4532;50.886;4.700;2024-03-07T15:14:43;11.80;70.80
8994;DHT22;4532;50.886;4.700;2024-03-07T15:17:22;11.80;70.40
8994;DHT22;4532;50.886;4.700;2024-03-07T15:19:50;11.80;70.90
8994;DHT22;4532;50.886;4.700;2024-03-07T15:22:20;11.80;70.40
8994;DHT22;4532;50.886;4.700;2024-03-07T15:24:52;11.80;70.50
8994;DHT22;4532;50.886;4.700;2024-03-07T15:27:22;11.80;70.60
8994;DHT22;4532;50.886;4.700;2024-03-07T15:29:52;11.90;70.10
8994;DHT22;4532;50.886;4.700;2024-03-07T15:32:19;11.90;70.80
8994;DHT22;4532;50.886;4.700;2024-03-07T15:34:48;11.90;70.90
8994;DHT22;4532;50.886;4.700;2024-03-07T15:37:20;11.90;71.00
8994;DHT22;4532;50.886;4.700;2024-03-07T15:39:50;12.00;71.00
8994;DHT22;4532;50.886;4.700;2024-03-07T15:42:20;12.00;70.80
8994;DHT22;4532;50.886;4.700;2024-03-07T15:44:50;12.00;70.80
8994;DHT22;4532;50.886;4.700;2024-03-07T15:47:19;12.10;71.00
8994;DHT22;4532;50.886;4.700;2024-03-07T15:49:48;12.10;71.10
8994;DHT22;4532;50.886;4.700;2024-03-07T15:52:21;12.10;71.10
8994;DHT22;4532;50.886;4.700;2024-03-07T15:54:48;12.20;70.00
8994;DHT22;4532;50.886;4.700;2024-03-07T15:57:17;12.20;71.00
8994;DHT22;4532;50.886;4.700;2024-03-07T15:59:48;12.20;71.10
8994;DHT22;4532;50.886;4.700;2024-03-07T16:02:21;12.30;70.90
8994;DHT22;4532;50.886;4.700;2024-03-07T16:04:48;12.30;70.90
8994;DHT22;4532;50.886;4.700;2024-03-07T16:07:16;12.30;70.90
8994;DHT22;4532;50.886;4.700;2024-03-07T16:09:47;12.40;69.60
8994;DHT22;4532;50.886;4.700;2024-03-07T16:12:22;12.40;70.80
8994;DHT22;4532;50.886;4.700;2024-03-07T16:14:54;12.40;71.00
8994;DHT22;4532;50.886;4.700;2024-03-07T16:17:28;12.50;70.60
8994;DHT22;4532;50.886;4.700;2024-03-07T16:19:55;12.50;70.50
8994;DHT22;4532;50.886;4.700;2024-03-07T16:22:25;12.50;70.50
8994;DHT22;4532;50.886;4.700;2024-03-07T16:24:54;12.60;70.30
8994;DHT22;4532;50.886;4.700;2024-03-07T16:27:24;12.60;70.60
8994;DHT22;4532;50.886;4.700;2024-03-07T16:29:51;12.60;70.50
8994;DHT22;4532;50.886;4.700;2024-03-07T16:32:20;12.60;70.70
8994;DHT22;4532;50.886;4.700;2024-03-07T16:34:48;12.70;71.00
8994;DHT22;4532;50.886;4.700;2024-03-07T16:37:16;12.70;70.40
8994;DHT22;4532;50.886;4.700;2024-03-07T16:39:43;12.70;70.40
8994;DHT22;4532;50.886;4.700;2024-03-07T16:42:13;12.80;70.60
8994;DHT22;4532;50.886;4.700;2024-03-07T16:44:42;12.80;70.30
8994;DHT22;4532;50.886;4.700;2024-03-07T16:47:10;12.80;70.20
8994;DHT22;4532;50.886;4.700;2024-03-07T16:49:41;12.80;70.00
8994;DHT22;4532;50.886;4.700;2024-03-07T16:52:10;12.80;69.60
8994;DHT22;4532;50.886;4.700;2024-03-07T16:54:38;12.80;69.70
8994;DHT22;4532;50.886;4.700;2024-03-07T16:57:05;12.80;69.60
8994;DHT22;4532;50.886;4.700;2024-03-07T16:59:42;12.80;69.50
8994;DHT22;4532;50.886;4.700;2024-03-07T17:02:11;12.70;68.70
8994;DHT22;4532;50.886;4.700;2024-03-07T17:04:38;12.70;69.40
8994;DHT22;4532;50.886;4.700;2024-03-07T17:07:05;12.70;69.50
8994;DHT22;4532;50.886;4.700;2024-03-07T17:09:40;12.70;69.80